Jefferson City

Airport
ICAO code: 
KJEF
Summary
ICAO Region: 
NAM
Territory: 
Location: 
Jefferson City, Missouri,
Coordinates: 
Aerial View: 
38° 35' 28.326" N, 92° 9' 21.951" W
Metar
Observation
KJEF 040653Z AUTO 36004KT 10SM CLR 10/00 A3013 RMK AO2 SLP191 T01000000
Station
Jefferson City, Jefferson City Memorial Airport
Date/Time
2021-12-04 06:53:00
Wind direction
360°
Wind speed
04 kts
Lowest cloud amount
n/a
Temperature
10°C
Dew point
0°C
Humidity
49%
Weather condition
n/a

Description

Jefferson City Memorial Airport is a public airport located 3 km northeast of the central business district of Jefferson City, in Callaway County, Missouri, United States.

Climatology

Humid continental climate (Köppen climate classification Dfa) - characterized by four seasons: cold, windy, snowy winters, mild springs, hot, humid summers, and crisp and relatively short autumns. Precipitation reaches its lowest in January and February and peaks in summer and latter half of spring.

Runways

Designator Length Width Surface Rops
9/27 1037 23 CON Yes/Yes
12/30 1829 30 ASP Yes/Yes
Airport map: 
Aerial View: 

SKYbrary Partners:

Safety knowledge contributed by: